Latest Weather Observations for Canungra (Defence)

IDQ60901

Issued at 9:31 pm EST Tuesday 4 August 2020 (issued every 10 minutes, with the page automatically refreshed every 10 minutes)

About weather observations | Map of Brisbane area stations | Latest observations for Brisbane area | Other Formats
Station Details ID: 140008 Name: CANUNGRA (DEFENCE) Lat: -28.04 Lon: 153.19 Height: 108.15 m
Data from the previous 72 hours. | See also: Recent months at Canungra (Defence)
Date/Time
EST
Temp
°C
App
Temp
°C
Dew
Point
°C
Rel
Hum
%
Delta-T
°C
Wind Press
QNH
hPa
Press
MSL
hPa
Rain since
9am
mm
Dir  Spd
km/h
Gust
km/h
Spd
kts
Gust
kts
04/09:30pm 7.8 7.2 7.2 96 0.3 CALM 0 0 0 0 - - 0.0
04/09:00pm 8.0 7.4 7.2 95 0.4 CALM 0 0 0 0 - - 0.0
04/08:30pm 8.6 8.1 7.7 94 0.4 CALM 0 0 0 0 - - 0.0
04/08:00pm 8.8 8.2 7.6 92 0.6 CALM 0 0 0 0 - - 0.0
04/07:30pm 9.6 9.1 7.7 88 0.9 CALM 0 0 0 0 - - 0.0
04/07:00pm 10.7 10.3 8.3 85 1.2 CALM 0 2 0 1 - - 0.0
04/06:30pm 12.0 11.7 8.5 79 1.7 CALM 0 0 0 0 - - 0.0
04/06:00pm 13.4 13.1 8.7 73 2.4 CALM 0 0 0 0 - - 0.0
04/05:30pm 15.5 15.6 10.1 70 2.8 CALM 0 0 0 0 - - 0.0
04/05:00pm 18.1 18.3 10.5 61 4.1 CALM 0 0 0 0 - - 0.0
04/04:30pm 21.4 19.6 7.3 40 7.3 NNW 6 15 3 8 - - 0.0
04/04:00pm 21.3 19.3 6.4 38 7.6 WNW 6 11 3 6 - - 0.0
04/03:30pm 22.4 19.8 6.2 35 8.3 NNW 9 17 5 9 - - 0.0
04/03:00pm 22.3 20.4 6.5 36 8.1 N 6 13 3 7 - - 0.0
04/02:30pm 21.7 19.8 6.8 38 7.6 NNE 6 11 3 6 - - 0.0
04/02:00pm 21.8 19.7 8.3 42 7.1 NNW 9 15 5 8 - - 0.0
04/01:30pm 21.3 19.3 7.2 40 7.3 NW 7 15 4 8 - - 0.0
04/01:00pm 22.1 20.3 7.9 40 7.5 NNW 7 19 4 10 - - 0.0
04/12:30pm 21.4 19.5 7.6 41 7.2 N 7 17 4 9 - - 0.0
04/12:00pm 21.4 19.9 9.3 46 6.5 N 7 11 4 6 - - 0.0
04/11:30am 20.8 19.6 10.3 51 5.7 N 7 13 4 7 - - 0.0
04/11:00am 19.9 19.2 11.4 58 4.7 NNE 6 9 3 5 - - 0.0
04/10:30am 18.3 18.4 12.7 70 3.1 NE 4 9 2 5 - - 0.0
04/10:00am 15.7 16.7 13.2 85 1.4 CALM 0 0 0 0 - - 0.0
04/09:30am 13.9 14.8 13.0 94 0.5 CALM 0 0 0 0 - - 0.0
04/09:00am 12.6 13.3 12.3 98 0.2 CALM 0 0 0 0 - - 0.0
04/08:30am 11.8 12.3 11.6 99 0.1 CALM 0 0 0 0 - - 0.0
04/08:00am 10.9 11.1 10.7 99 0.1 CALM 0 0 0 0 - - 0.0
04/07:30am 10.2 10.3 10.1 99 0.1 CALM 0 0 0 0 - - 0.0
04/07:00am 9.7 9.6 9.6 99 0.1 CALM 0 0 0 0 - - 0.0
04/06:30am 9.5 9.4 9.4 99 0.0 CALM 0 0 0 0 - - 0.0
04/06:00am 9.4 9.3 9.3 99 0.0 CALM 0 0 0 0 - - 0.0
04/05:30am 9.3 9.1 9.2 99 0.0 CALM 0 4 0 2 - - 0.0
04/05:00am 9.4 9.3 9.3 99 0.0 CALM 0 0 0 0 - - 0.0
04/04:30am 9.3 9.1 9.2 99 0.0 CALM 0 0 0 0 - - 0.0
04/04:00am 9.2 9.0 9.1 99 0.0 CALM 0 0 0 0 - - 0.0
04/03:30am 9.0 8.8 8.9 99 0.0 CALM 0 0 0 0 - - 0.0
04/03:00am 8.8 8.5 8.7 99 0.0 CALM 0 0 0 0 - - 0.0
04/02:30am 8.6 8.3 8.5 99 0.0 CALM 0 0 0 0 - - 0.0
04/02:00am 8.1 7.6 8.0 99 0.0 CALM 0 0 0 0 - - 0.0
04/01:30am 7.8 7.2 7.5 98 0.1 CALM 0 0 0 0 - - 0.0
04/01:00am 8.0 7.5 7.7 98 0.1 CALM 0 0 0 0 - - 0.0
04/12:30am 7.8 7.2 7.5 98 0.1 CALM 0 0 0 0 - - 0.0
04/12:00am 7.8 7.2 7.5 98 0.1 CALM 0 0 0 0 - - 0.0
 
Date/Time
EST
Temp
°C
App
Temp
°C
Dew
Point
°C
Rel
Hum
%
Delta-T
°C
Wind Press
QNH
hPa
Press
MSL
hPa
Rain since
9am
mm
Dir  Spd
km/h
Gust
km/h
Spd
kts
Gust
kts
03/11:30pm 7.8 7.2 7.5 98 0.1 CALM 0 0 0 0 - - 0.0
03/11:00pm 7.6 7.0 7.3 98 0.1 CALM 0 0 0 0 - - 0.0
03/10:30pm 7.6 7.0 7.3 98 0.1 CALM 0 0 0 0 - - 0.0
03/10:00pm 8.1 7.6 7.8 98 0.1 CALM 0 0 0 0 - - 0.0
03/09:30pm 8.1 7.6 7.7 97 0.2 CALM 0 0 0 0 - - 0.0
03/09:00pm 8.8 8.4 8.4 97 0.2 CALM 0 0 0 0 - - 0.0
03/08:30pm 9.2 8.9 8.7 97 0.2 CALM 0 0 0 0 - - 0.0
03/08:00pm 9.8 9.6 9.2 96 0.3 CALM 0 0 0 0 - - 0.0
03/07:30pm 9.8 9.6 9.0 95 0.4 CALM 0 0 0 0 - - 0.0
03/07:00pm 11.0 11.1 10.2 95 0.4 CALM 0 0 0 0 - - 0.0
03/06:30pm 11.7 11.9 10.4 92 0.7 CALM 0 0 0 0 - - 0.0
03/06:00pm 12.8 13.1 11.0 89 0.9 CALM 0 0 0 0 - - 0.0
03/05:30pm 14.3 14.6 10.9 80 1.8 CALM 0 4 0 2 - - 0.0
03/05:00pm 16.6 16.6 11.1 70 3.0 NE 2 6 1 3 - - 0.0
03/04:30pm 19.1 18.3 10.9 59 4.5 NE 6 11 3 6 - - 0.0
03/04:00pm 20.1 19.0 10.8 55 5.1 N 7 11 4 6 - - 0.0
03/03:30pm 20.6 19.6 11.0 54 5.3 ENE 7 11 4 6 - - 0.0
03/03:00pm 20.0 19.5 10.7 55 5.1 NE 4 7 2 4 - - 0.0
03/02:30pm 19.4 19.2 10.4 56 4.9 NE 2 6 1 3 - - 0.0
03/02:00pm 20.0 18.9 9.9 52 5.4 NNE 6 9 3 5 - - 0.0
03/01:30pm 20.8 20.0 9.7 49 6.0 NNW 4 6 2 3 - - 0.0
03/01:00pm 21.8 20.4 9.7 46 6.6 N 7 15 4 8 - - 0.0
03/12:30pm 21.1 20.0 10.0 49 6.0 NNE 6 11 3 6 - - 0.0
03/12:00pm 20.2 19.3 10.6 54 5.2 N 6 9 3 5 - - 0.0
03/11:30am 19.7 18.6 9.9 53 5.3 N 6 9 3 5 - - 0.0
03/11:00am 19.1 17.8 9.9 55 4.9 NNW 7 11 4 6 - - 0.0
03/10:30am 19.1 19.3 11.9 63 4.0 NNE 2 6 1 3 - - 0.0
03/10:00am 18.3 18.9 11.8 66 3.6 CALM 0 4 0 2 - - 0.0
03/09:30am 15.7 16.4 12.1 79 2.0 CALM 0 0 0 0 - - 0.0
03/09:00am 12.6 13.2 11.8 95 0.4 CALM 0 0 0 0 - - 0.0
03/08:30am 9.9 9.9 9.8 99 0.1 CALM 0 0 0 0 - - 0.0
03/08:00am 7.6 7.0 7.5 99 0.0 CALM 0 0 0 0 - - 0.0
03/07:30am 5.2 4.1 4.9 98 0.1 CALM 0 0 0 0 - - 0.0
03/07:00am 4.9 3.7 4.6 98 0.1 CALM 0 0 0 0 - - 0.0
03/06:30am 5.2 4.1 4.9 98 0.1 CALM 0 0 0 0 - - 0.0
03/06:00am 5.2 4.1 4.9 98 0.1 CALM 0 0 0 0 - - 0.0
03/05:30am 5.5 4.4 5.2 98 0.1 CALM 0 0 0 0 - - 0.0
03/05:00am 5.7 4.7 5.4 98 0.1 CALM 0 0 0 0 - - 0.0
03/04:30am 5.5 4.4 5.2 98 0.1 CALM 0 0 0 0 - - 0.0
03/04:00am 5.7 4.7 5.4 98 0.1 CALM 0 0 0 0 - - 0.0
03/03:30am 5.5 4.4 5.2 98 0.1 CALM 0 0 0 0 - - 0.0
03/03:00am 6.2 5.3 5.9 98 0.1 CALM 0 0 0 0 - - 0.0
03/02:30am 6.4 5.5 6.1 98 0.1 CALM 0 0 0 0 - - 0.0
03/02:00am 6.5 5.6 6.2 98 0.1 CALM 0 0 0 0 - - 0.0
03/01:30am 6.9 6.1 6.6 98 0.1 CALM 0 0 0 0 - - 0.0
03/01:00am 7.1 6.4 6.8 98 0.1 CALM 0 0 0 0 - - 0.0
03/12:30am 7.5 6.9 7.2 98 0.1 CALM 0 0 0 0 - - 0.0
03/12:00am 7.3 6.6 7.0 98 0.1 CALM 0 0 0 0 - - 0.0
 
Date/Time
EST
Temp
°C
App
Temp
°C
Dew
Point
°C
Rel
Hum
%
Delta-T
°C
Wind Press
QNH
hPa
Press
MSL
hPa
Rain since
9am
mm
Dir  Spd
km/h
Gust
km/h
Spd
kts
Gust
kts
02/11:30pm 7.5 6.9 7.2 98 0.1 CALM 0 0 0 0 - - 0.0
02/11:00pm 8.0 7.4 7.6 97 0.2 CALM 0 0 0 0 - - 0.0
02/10:30pm 8.3 7.8 7.9 97 0.2 CALM 0 0 0 0 - - 0.0
02/10:00pm 8.7 8.3 8.3 97 0.2 CALM 0 0 0 0 - - 0.0
02/09:30pm 9.1 8.8 8.6 97 0.2 CALM 0 0 0 0 - - 0.0
02/09:00pm 9.6 9.4 9.1 97 0.2 CALM 0 0 0 0 - - 0.0
02/08:30pm 10.0 9.9 9.4 96 0.3 CALM 0 0 0 0 - - 0.0
02/08:00pm 10.7 10.8 10.1 96 0.3 CALM 0 0 0 0 - - 0.0
02/07:30pm 11.2 11.3 10.3 94 0.5 CALM 0 2 0 1 - - 0.0
02/07:00pm 11.9 12.1 10.6 92 0.7 CALM 0 0 0 0 - - 0.0
02/06:30pm 12.8 13.1 11.0 89 0.9 CALM 0 0 0 0 - - 0.0
02/06:00pm 14.3 14.7 11.1 81 1.7 CALM 0 0 0 0 - - 0.0
02/05:30pm 17.1 16.5 11.6 70 3.0 ENE 6 11 3 6 - - 0.0
02/05:00pm 18.1 17.4 11.4 65 3.7 E 6 11 3 6 - - 0.0
02/04:30pm 19.5 18.8 11.5 60 4.4 E 6 15 3 8 - - 0.0
02/04:00pm 20.3 19.5 11.2 56 5.0 NE 6 15 3 8 - - 0.0
02/03:30pm 20.8 19.5 11.4 55 5.2 NE 9 17 5 9 - - 0.0
02/03:00pm 21.8 20.6 10.3 48 6.3 ENE 7 11 4 6 - - 0.0
02/02:30pm 22.2 20.7 9.0 43 7.1 NE 7 13 4 7 - - 0.0
02/02:00pm 22.4 20.7 8.5 41 7.4 NNW 7 13 4 7 - - 0.0
02/01:30pm 22.3 20.7 8.1 40 7.5 N 6 11 3 6 - - 0.0
02/01:00pm 22.5 21.5 9.0 42 7.2 NW 4 15 2 8 - - 0.0
02/12:30pm 22.5 21.4 8.6 41 7.4 N 4 6 2 3 - - 0.0
02/12:00pm 21.3 20.4 9.2 46 6.5 SE 4 9 2 5 - - 0.0
02/11:30am 20.8 19.7 8.4 45 6.5 NNE 4 6 2 3 - - 0.0
02/11:00am 20.6 19.8 9.8 50 5.8 NNW 4 7 2 4 - - 0.0
02/10:30am 19.3 19.0 10.0 55 5.0 NNE 2 4 1 2 - - 0.0
02/10:00am 17.5 17.9 11.3 67 3.4 CALM 0 6 0 3 - - 0.0
02/09:30am 14.9 15.4 11.5 80 1.8 CALM 0 0 0 0 - - 0.0
02/09:00am 11.6 12.0 11.3 98 0.2 CALM 0 0 0 0 - - 0.0
02/08:30am 9.5 9.4 9.4 99 0.0 CALM 0 0 0 0 - - 0.0
02/08:00am 6.8 6.0 6.7 99 0.0 CALM 0 0 0 0 - - 0.0
02/07:30am 3.5 2.1 3.4 99 0.0 CALM 0 0 0 0 - - 0.0
02/07:00am 2.9 1.4 2.8 99 0.0 CALM 0 0 0 0 - - 0.0
02/06:30am 2.8 1.2 2.7 99 0.0 CALM 0 0 0 0 - - 0.0
02/06:00am 3.0 1.5 2.9 99 0.0 CALM 0 0 0 0 - - 0.0
02/05:30am 3.2 1.7 3.1 99 0.0 CALM 0 0 0 0 - - 0.0
02/05:00am 3.5 2.1 3.4 99 0.0 CALM 0 0 0 0 - - 0.0
02/04:30am 3.6 2.2 3.3 98 0.1 CALM 0 0 0 0 - - 0.0
02/04:00am 3.8 2.4 3.5 98 0.1 CALM 0 0 0 0 - - 0.0
02/03:30am 4.0 2.6 3.7 98 0.1 CALM 0 0 0 0 - - 0.0
02/03:00am 4.5 3.2 4.2 98 0.1 CALM 0 0 0 0 - - 0.0
02/02:30am 4.5 3.2 4.2 98 0.1 CALM 0 0 0 0 - - 0.0
02/02:00am 4.8 3.6 4.5 98 0.1 CALM 0 0 0 0 - - 0.0
02/01:30am 4.9 3.7 4.6 98 0.1 CALM 0 0 0 0 - - 0.0
02/01:00am 5.5 4.4 5.2 98 0.1 CALM 0 0 0 0 - - 0.0
02/12:30am 5.8 4.8 5.5 98 0.1 CALM 0 0 0 0 - - 0.0
02/12:00am 6.1 5.1 5.8 98 0.1 CALM 0 0 0 0 - - 0.0
 
Date/Time
EST
Temp
°C
App
Temp
°C
Dew
Point
°C
Rel
Hum
%
Delta-T
°C
Wind Press
QNH
hPa
Press
MSL
hPa
Rain since
9am
mm
Dir  Spd
km/h
Gust
km/h
Spd
kts
Gust
kts
01/11:30pm 6.3 5.4 6.0 98 0.1 CALM 0 0 0 0 - - 0.0
01/11:00pm 6.7 5.9 6.4 98 0.1 CALM 0 0 0 0 - - 0.0
01/10:30pm 7.0 6.2 6.6 97 0.2 CALM 0 0 0 0 - - 0.0
01/10:00pm 7.3 6.6 6.9 97 0.2 CALM 0 0 0 0 - - 0.0

Latest Capital City Observations: Canberra | Sydney | Melbourne | Brisbane | Adelaide | Perth | Hobart | Darwin

Other formats

Comma delimited format used in spreadsheet applications
http://www.bom.gov.au/fwo/IDQ60901/IDQ60901.94418.axf

JavaScript Object Notation format (JSON) in row-major order
http://www.bom.gov.au/fwo/IDQ60901/IDQ60901.94418.json

Data quality

Most of these data are generated automatically and are frequently updated. Quality checks on data are not normally performed. It is possible for incorrect values to appear. Refer to information at About Latest Weather Observations and please check the disclaimer before using these data.